CA-0483 weather

CLOSED Armour Heights Field
Toronto, Ontario, Canada

Public forecast

Using degrees Celsius for public forecast. Weather courtesy of forecast.io.

METAR (pilot weather report)

Closest report is Billy Bishop Toronto City Centre Airport, 6.9 nm (12.8 km) S. Retrieved 2019/05/25 17:00 UTC (19 minutes ago):

CYTZ 251700Z AUTO 08012KT 8SM BKN008 13/12 A2993 RMK LTNG DIST N SLP137

TAF (pilot weather forecast)

Closest forecast is Billy Bishop Toronto City Centre Airport, 6.9 nm (12.8 km) S. Retrieved 2019/05/25 14:44 UTC (3 hours ago):

TAF CYTZ 251339Z 2514/2614 07007KT P6SM -SHRA OVC030 TEMPO 2514/2520 2SM SHRA BR BKN020 PROB30 2514/2516 VRB15G30KT 1SM +TSRA BR BKN005 OVC020CB FM252000 09007KT 2SM SHRA BR OVC005 PROB30 2520/2523 VRB15G35KT 1SM +TSRA BR BKN007 OVC020CB FM252300 23010KT P6SM BKN030 FM260200 24010KT P6SM SCT010 BKN240 TEMPO 2602/2609 SCT008 BKN010 RMK FCST BASED ON AUTO OBS. NXT FCST BY 252000Z